createdAt,value
2022-08-07T00:02:40.511Z,70.44
2022-08-07T00:04:54.346Z,70.29
2022-08-07T00:07:21.080Z,70.70
2022-08-07T00:09:59.247Z,71.60
2022-08-07T00:12:34.396Z,72.29
2022-08-07T00:15:11.352Z,73.18
2022-08-07T00:17:41.008Z,74.32
2022-08-07T00:20:11.694Z,74.64
2022-08-07T00:22:56.140Z,76.03
2022-08-07T00:25:25.015Z,75.95
2022-08-07T00:27:56.534Z,77.20
2022-08-07T00:30:27.026Z,77.41
2022-08-07T00:33:00.766Z,76.45
2022-08-07T00:35:30.319Z,76.66
2022-08-07T00:37:58.297Z,75.71
2022-08-07T00:40:36.565Z,76.15
2022-08-07T00:44:01.684Z,75.87
2022-08-07T00:46:01.941Z,77.15
2022-08-07T00:48:31.818Z,77.99
2022-08-07T00:51:01.957Z,78.38
2022-08-07T00:53:39.281Z,79.09
2022-08-07T00:56:16.023Z,79.64
2022-08-07T00:58:43.820Z,79.65
2022-08-07T01:01:14.790Z,79.24
2022-08-07T01:03:56.827Z,79.26
2022-08-07T01:06:31.737Z,80.27
2022-08-07T01:09:01.114Z,79.37
2022-08-07T01:12:27.440Z,79.36
2022-08-07T01:14:21.314Z,79.31
2022-08-07T01:16:56.828Z,80.19
2022-08-07T01:19:27.591Z,80.54
2022-08-07T01:22:00.892Z,81.44
2022-08-07T01:24:32.498Z,82.12
2022-08-07T01:27:02.658Z,82.58
2022-08-07T01:29:33.916Z,82.50
2022-08-07T01:32:01.343Z,81.91
2022-08-07T01:34:33.354Z,82.68
2022-08-07T01:37:00.883Z,85.11
2022-08-07T01:39:41.030Z,85.21
2022-08-07T01:42:38.373Z,84.97
2022-08-07T01:45:17.850Z,85.93
2022-08-07T01:48:29.510Z,86.03
2022-08-07T01:50:32.808Z,85.02
2022-08-07T01:53:08.922Z,84.98
2022-08-07T01:55:42.271Z,84.71
2022-08-07T01:58:28.953Z,84.77
2022-08-07T02:01:09.872Z,84.72
2022-08-07T02:03:58.344Z,84.34
2022-08-07T02:06:31.241Z,83.70
2022-08-07T02:09:03.822Z,83.59
2022-08-07T02:12:03.682Z,82.02
2022-08-07T02:14:35.644Z,82.06
2022-08-07T02:17:06.295Z,82.59
2022-08-07T02:20:04.348Z,82.40
2022-08-07T02:22:25.797Z,82.84
2022-08-07T02:24:54.621Z,83.79
2022-08-07T02:27:24.275Z,83.59
2022-08-07T02:29:54.800Z,83.59
2022-08-07T02:32:23.198Z,84.61
2022-08-07T02:34:51.810Z,86.23
2022-08-07T02:37:19.950Z,87.05
2022-08-07T02:40:11.959Z,87.11
2022-08-07T02:42:44.003Z,86.88
2022-08-07T02:45:59.055Z,85.97
2022-08-07T02:48:01.852Z,85.99
2022-08-07T02:50:32.639Z,86.45
2022-08-07T02:53:12.545Z,87.31
2022-08-07T02:56:03.371Z,87.43
2022-08-07T02:58:34.030Z,88.02
2022-08-07T03:01:03.097Z,87.60
2022-08-07T03:03:49.984Z,88.27
2022-08-07T03:06:25.833Z,87.35
2022-08-07T03:09:01.304Z,86.79
2022-08-07T03:11:32.691Z,86.83
2022-08-07T03:14:02.725Z,86.87
2022-08-07T03:16:30.940Z,86.52
2022-08-07T03:18:59.445Z,85.92
2022-08-07T03:21:28.364Z,86.50
2022-08-07T03:24:17.897Z,86.12
2022-08-07T03:26:57.881Z,86.52
2022-08-07T03:29:33.697Z,87.38
2022-08-07T03:32:05.331Z,86.98
2022-08-07T03:34:39.197Z,86.84
2022-08-07T03:37:12.254Z,86.29
2022-08-07T03:39:59.884Z,86.70
2022-08-07T03:42:28.178Z,85.89
2022-08-07T03:44:57.752Z,85.66
2022-08-07T03:47:26.083Z,85.42
2022-08-07T03:49:56.891Z,85.02
2022-08-07T03:52:29.111Z,85.14
2022-08-07T03:55:06.834Z,85.13
2022-08-07T03:58:08.756Z,85.09
2022-08-07T04:00:30.619Z,84.68
2022-08-07T04:03:03.657Z,84.06
2022-08-07T04:05:39.785Z,83.68
2022-08-07T04:08:16.004Z,83.90
2022-08-07T04:10:54.428Z,83.81
2022-08-07T04:14:09.508Z,83.07
2022-08-07T04:16:30.118Z,83.25
2022-08-07T04:19:01.676Z,84.35
2022-08-07T04:21:39.946Z,84.83
2022-08-07T04:24:33.701Z,85.16
2022-08-07T04:27:01.935Z,85.30
2022-08-07T04:29:40.365Z,85.27
2022-08-07T04:32:16.258Z,84.67
2022-08-07T04:34:44.097Z,83.74
2022-08-07T04:37:20.233Z,83.47
2022-08-07T04:39:49.975Z,83.65
2022-08-07T04:42:17.596Z,84.12
2022-08-07T04:44:54.683Z,84.54
2022-08-07T04:47:57.050Z,85.52
2022-08-07T04:50:42.361Z,85.94
2022-08-07T04:53:16.612Z,86.08
2022-08-07T04:58:14.165Z,86.34
2022-08-07T05:00:09.696Z,85.67
2022-08-07T05:02:30.643Z,84.59
2022-08-07T05:05:11.853Z,83.86
2022-08-07T05:08:12.959Z,81.35
2022-08-07T05:10:45.957Z,76.37
2022-08-07T05:14:55.125Z,73.52
2022-08-07T05:16:24.471Z,70.35
2022-08-07T05:18:59.380Z,66.15
2022-08-07T05:21:59.850Z,63.13
2022-08-07T05:24:18.289Z,59.94
2022-08-07T05:26:55.552Z,59.51
2022-08-07T05:29:26.698Z,57.22
2022-08-07T05:32:07.657Z,52.86
2022-08-07T05:34:36.355Z,50.40
2022-08-07T05:37:05.840Z,48.82
2022-08-07T05:40:16.532Z,47.54
2022-08-07T05:42:34.291Z,46.24
2022-08-07T05:45:14.171Z,45.74
2022-08-07T05:48:02.578Z,47.41
2022-08-07T05:50:31.830Z,46.12
2022-08-07T05:53:00.294Z,46.71
2022-08-07T05:56:03.334Z,45.76
2022-08-07T05:58:17.420Z,44.45
2022-08-07T06:01:04.965Z,45.03
2022-08-07T06:03:56.793Z,44.15
2022-08-07T06:06:23.278Z,44.18
2022-08-07T06:08:57.068Z,43.12
2022-08-07T06:11:25.275Z,43.23
2022-08-07T06:14:13.380Z,42.73
2022-08-07T06:16:44.505Z,43.89
2022-08-07T06:19:52.318Z,44.73
2022-08-07T06:22:15.814Z,44.40
2022-08-07T06:24:56.978Z,46.46
2022-08-07T06:27:44.181Z,45.61
2022-08-07T06:30:32.128Z,51.67
2022-08-07T06:32:59.466Z,50.64
2022-08-07T06:35:38.923Z,48.87
2022-08-07T06:38:20.031Z,47.99
2022-08-07T06:40:51.295Z,49.84
2022-08-07T06:43:23.557Z,49.75
2022-08-07T06:45:50.753Z,52.29
2022-08-07T06:48:25.225Z,52.52
2022-08-07T06:50:54.771Z,54.97
2022-08-07T06:54:12.040Z,55.83
2022-08-07T06:56:14.828Z,54.69
2022-08-07T07:00:13.058Z,51.47
2022-08-07T07:01:44.049Z,51.57
2022-08-07T07:04:32.995Z,55.73
2022-08-07T07:07:02.413Z,56.62
2022-08-07T07:09:47.958Z,56.83
2022-08-07T07:12:31.130Z,56.61
2022-08-07T07:15:08.624Z,57.96
2022-08-07T07:17:55.284Z,57.62
2022-08-07T07:20:36.073Z,57.19
2022-08-07T07:24:09.725Z,55.85
2022-08-07T07:26:32.326Z,53.84
2022-08-07T07:29:56.608Z,54.21
2022-08-07T07:31:46.516Z,52.08
2022-08-07T07:34:22.234Z,53.12
2022-08-07T07:37:14.801Z,52.17
2022-08-07T07:39:54.230Z,52.06
2022-08-07T07:42:32.596Z,51.54
2022-08-07T07:45:05.794Z,49.75
2022-08-07T07:47:51.773Z,47.92
2022-08-07T07:50:34.143Z,48.71
2022-08-07T07:53:20.335Z,47.01
2022-08-07T07:56:00.456Z,45.77
2022-08-07T07:58:40.582Z,45.81
2022-08-07T08:02:02.264Z,45.68
2022-08-07T08:04:10.162Z,45.02
2022-08-07T08:06:39.863Z,45.66
2022-08-07T08:09:09.715Z,43.95
2022-08-07T08:11:47.179Z,43.92
2022-08-07T08:14:26.653Z,43.65
2022-08-07T08:16:56.235Z,43.25
2022-08-07T08:20:17.081Z,42.73
2022-08-07T08:22:32.848Z,43.01
2022-08-07T08:25:18.191Z,41.57
2022-08-07T08:27:56.701Z,41.63
2022-08-07T08:30:27.960Z,41.27
2022-08-07T08:32:58.557Z,40.29
2022-08-07T08:35:28.796Z,38.76
2022-08-07T08:38:08.925Z,39.42
2022-08-07T08:40:46.936Z,38.80
2022-08-07T08:43:42.726Z,38.37
2022-08-07T08:46:32.170Z,38.04
2022-08-07T08:50:05.193Z,37.59
2022-08-07T08:52:40.900Z,37.61
2022-08-07T08:55:58.981Z,36.12
2022-08-07T08:58:54.650Z,36.43
2022-08-07T09:01:40.105Z,36.33
2022-08-07T09:04:35.011Z,35.25
2022-08-07T09:07:15.310Z,34.45
2022-08-07T09:10:09.921Z,34.65
2022-08-07T09:12:53.050Z,34.32
2022-08-07T09:16:23.193Z,33.86
2022-08-07T09:19:44.585Z,31.69
2022-08-07T09:24:28.060Z,31.56
2022-08-07T09:25:14.598Z,30.58
2022-08-07T09:28:00.136Z,30.52
2022-08-07T09:31:08.713Z,29.69
2022-08-07T09:33:52.469Z,29.07
2022-08-07T09:36:37.349Z,29.97
2022-08-07T09:39:55.249Z,30.70
2022-08-07T09:42:33.536Z,31.20
2022-08-07T09:47:24.371Z,30.85
2022-08-07T09:48:55.879Z,31.27
2022-08-07T09:52:10.777Z,29.33
2022-08-07T09:54:58.805Z,29.17
2022-08-07T09:58:02.327Z,30.38
2022-08-07T10:00:48.173Z,29.64
2022-08-07T10:04:06.372Z,28.83
2022-08-07T10:06:36.566Z,29.13
2022-08-07T10:09:42.465Z,28.69
2022-08-07T10:12:34.946Z,29.41
2022-08-07T10:15:44.889Z,29.40
2022-08-07T10:18:33.341Z,28.02
2022-08-07T10:22:15.134Z,29.52
2022-08-07T10:24:39.870Z,27.63
2022-08-07T10:27:13.150Z,28.43
2022-08-07T10:30:04.672Z,27.27
2022-08-07T10:33:14.851Z,27.77
2022-08-07T10:36:11.377Z,28.08
2022-08-07T10:38:57.526Z,28.16
2022-08-07T10:41:53.132Z,26.51
2022-08-07T10:44:39.949Z,28.43
2022-08-07T10:47:26.815Z,26.80
2022-08-07T10:50:08.677Z,27.68
2022-08-07T10:52:59.366Z,26.94
2022-08-07T10:56:02.296Z,26.93
2022-08-07T10:59:03.315Z,27.71
2022-08-07T11:01:51.379Z,27.60
2022-08-07T11:04:47.437Z,27.87
2022-08-07T11:07:24.617Z,27.46
2022-08-07T11:10:11.051Z,27.79
2022-08-07T11:13:07.533Z,28.37
2022-08-07T11:15:58.957Z,27.36
2022-08-07T11:18:34.083Z,28.34
2022-08-07T11:21:27.085Z,27.72
2022-08-07T11:24:01.705Z,29.48
2022-08-07T11:26:48.004Z,28.09
2022-08-07T11:29:42.069Z,28.82
2022-08-07T11:32:26.090Z,28.39
2022-08-07T11:34:58.852Z,28.58
2022-08-07T11:37:57.823Z,28.03
2022-08-07T11:40:58.660Z,28.25
2022-08-07T11:43:29.559Z,28.36
2022-08-07T11:46:27.203Z,28.91
2022-08-07T11:50:11.223Z,28.18
2022-08-07T11:52:37.740Z,27.92
2022-08-07T11:56:09.226Z,28.64
2022-08-07T11:58:13.246Z,28.85
2022-08-07T12:01:00.140Z,28.98
2022-08-07T12:03:50.334Z,28.48
2022-08-07T12:06:38.901Z,29.06
2022-08-07T12:09:23.579Z,27.93
2022-08-07T12:12:12.605Z,28.04
2022-08-07T12:15:04.360Z,29.21
2022-08-07T12:17:59.365Z,27.74
2022-08-07T12:20:52.506Z,28.53
2022-08-07T12:24:05.758Z,28.34
2022-08-07T12:26:49.170Z,28.30
2022-08-07T12:29:55.390Z,28.10
2022-08-07T12:32:50.298Z,27.78
2022-08-07T12:35:21.402Z,28.05
2022-08-07T12:38:11.610Z,28.03
2022-08-07T12:40:47.429Z,28.33
2022-08-07T12:44:02.703Z,27.96
2022-08-07T12:46:10.989Z,26.58
2022-08-07T12:49:09.779Z,28.24
2022-08-07T12:52:24.353Z,27.99
2022-08-07T12:55:41.003Z,28.19
2022-08-07T12:58:28.257Z,28.59
2022-08-07T13:01:32.633Z,27.34
2022-08-07T13:04:09.803Z,27.18
2022-08-07T13:08:12.555Z,27.98
2022-08-07T13:10:45.684Z,27.13
2022-08-07T13:13:50.190Z,27.33
2022-08-07T13:16:50.719Z,27.32
2022-08-07T13:19:45.944Z,26.76
2022-08-07T13:22:29.618Z,26.76
2022-08-07T13:25:24.126Z,27.56
2022-08-07T13:28:11.007Z,27.00
2022-08-07T13:30:52.091Z,26.69
2022-08-07T13:34:33.384Z,26.59
2022-08-07T13:37:10.776Z,27.40
2022-08-07T13:40:35.176Z,27.16
2022-08-07T13:43:05.901Z,26.31
2022-08-07T13:46:11.496Z,26.99
2022-08-07T13:48:42.591Z,25.79
2022-08-07T13:52:05.098Z,26.11
2022-08-07T13:54:23.470Z,27.61
2022-08-07T13:56:59.731Z,27.00
2022-08-07T13:59:30.361Z,27.34
2022-08-07T14:02:10.803Z,26.82
2022-08-07T14:05:03.759Z,26.76
2022-08-07T14:08:01.037Z,26.64
2022-08-07T14:10:42.228Z,26.49
2022-08-07T14:13:19.131Z,25.91
2022-08-07T14:15:56.819Z,25.97
2022-08-07T14:18:44.944Z,24.72
2022-08-07T14:22:04.115Z,25.74
2022-08-07T14:24:41.840Z,25.50
2022-08-07T14:28:09.711Z,26.11
2022-08-07T14:30:10.961Z,25.65
2022-08-07T14:32:45.296Z,26.57
2022-08-07T14:35:43.147Z,26.17
2022-08-07T14:38:26.675Z,25.59
2022-08-07T14:41:01.928Z,26.25
2022-08-07T14:46:33.254Z,25.87
2022-08-07T14:52:05.125Z,27.05
2022-08-07T14:54:42.244Z,27.08
2022-08-07T14:57:19.704Z,26.51
2022-08-07T15:00:03.392Z,26.73
2022-08-07T15:02:34.559Z,26.39
2022-08-07T15:05:03.127Z,26.12
2022-08-07T15:07:47.632Z,25.74
2022-08-07T15:10:19.627Z,25.99
2022-08-07T15:12:54.889Z,26.45
2022-08-07T15:15:33.806Z,26.20
2022-08-07T15:18:14.256Z,26.94
2022-08-07T15:21:03.934Z,27.15
2022-08-07T15:25:13.904Z,27.01
2022-08-07T15:26:49.434Z,27.09
2022-08-07T15:30:08.407Z,27.04
2022-08-07T15:32:06.556Z,26.62
2022-08-07T15:34:57.131Z,26.36
2022-08-07T15:38:18.352Z,26.63
2022-08-07T15:40:34.633Z,26.94
2022-08-07T15:43:52.882Z,26.79
2022-08-07T15:49:12.530Z,26.59
2022-08-07T15:54:34.273Z,26.12
2022-08-07T15:57:02.965Z,26.30
2022-08-07T15:59:39.015Z,27.17
2022-08-07T16:02:08.784Z,26.99
2022-08-07T16:04:38.254Z,26.81
2022-08-07T16:08:29.056Z,26.95
2022-08-07T16:10:09.617Z,26.93
2022-08-07T16:13:01.356Z,27.27
2022-08-07T16:16:06.385Z,27.85
2022-08-07T16:18:49.328Z,27.39
2022-08-07T16:21:56.973Z,26.06
2022-08-07T16:24:52.818Z,27.22
2022-08-07T16:27:40.826Z,26.80
2022-08-07T16:30:32.049Z,26.84
2022-08-07T16:34:01.954Z,26.99
2022-08-07T16:36:31.170Z,26.87
2022-08-07T16:39:20.949Z,27.05
2022-08-07T16:42:17.938Z,27.30
2022-08-07T16:46:47.137Z,27.61
2022-08-07T16:49:04.324Z,26.45
2022-08-07T16:51:54.138Z,26.42
2022-08-07T16:54:59.801Z,27.25
2022-08-07T16:58:01.911Z,26.82
2022-08-07T17:00:55.362Z,26.15
2022-08-07T17:03:59.487Z,26.31
2022-08-07T17:06:46.490Z,26.43
2022-08-07T17:10:06.683Z,26.59
2022-08-07T17:12:44.334Z,26.49
2022-08-07T17:15:15.686Z,27.10
2022-08-07T17:18:09.533Z,27.44
2022-08-07T17:20:40.508Z,27.45
2022-08-07T17:23:13.096Z,27.18
2022-08-07T17:26:04.155Z,26.43
2022-08-07T17:28:55.351Z,27.01
2022-08-07T17:31:44.239Z,26.94
2022-08-07T17:35:30.802Z,27.43
2022-08-07T17:38:06.828Z,27.63
2022-08-07T17:40:50.683Z,27.96
2022-08-07T17:44:00.857Z,27.28
2022-08-07T17:46:36.412Z,27.09
2022-08-07T17:49:30.060Z,27.44
2022-08-07T17:52:10.537Z,27.29
2022-08-07T17:54:53.644Z,26.53
2022-08-07T17:57:56.308Z,26.98
2022-08-07T18:00:34.420Z,27.37
2022-08-07T18:03:21.362Z,27.10
2022-08-07T18:06:02.374Z,27.42
2022-08-07T18:09:00.693Z,26.62
2022-08-07T18:12:16.866Z,26.18
2022-08-07T18:14:46.371Z,26.02
2022-08-07T18:18:45.627Z,26.66
2022-08-07T18:21:11.510Z,26.74
2022-08-07T18:23:56.013Z,27.38
2022-08-07T18:26:40.554Z,27.66
2022-08-07T18:30:05.841Z,27.60
2022-08-07T18:32:19.803Z,28.19
2022-08-07T18:35:04.939Z,28.59
2022-08-07T18:38:59.650Z,28.59
2022-08-07T18:40:59.772Z,27.40
2022-08-07T18:43:57.719Z,28.09
2022-08-07T18:47:01.086Z,28.44
2022-08-07T18:50:32.510Z,29.02
2022-08-07T18:53:15.212Z,29.38
2022-08-07T18:56:07.160Z,30.48
2022-08-07T18:58:51.500Z,30.67
2022-08-07T19:02:31.629Z,31.47
2022-08-07T19:04:56.275Z,32.74
2022-08-07T19:07:35.131Z,30.69
2022-08-07T19:10:31.356Z,31.25
2022-08-07T19:13:27.425Z,31.78
2022-08-07T19:17:05.967Z,31.96
2022-08-07T19:19:46.841Z,32.02
2022-08-07T19:22:31.466Z,32.71
2022-08-07T19:25:05.499Z,33.48
2022-08-07T19:28:56.655Z,33.95
2022-08-07T19:31:04.543Z,33.89
2022-08-07T19:33:34.589Z,34.07
2022-08-07T19:36:03.192Z,34.40
2022-08-07T19:38:34.122Z,34.46
2022-08-07T19:41:02.732Z,35.20
2022-08-07T19:43:45.611Z,35.96
2022-08-07T19:46:26.360Z,36.53
2022-08-07T19:49:06.719Z,36.72
2022-08-07T19:51:52.657Z,36.59
2022-08-07T19:54:33.334Z,37.76
2022-08-07T19:58:00.890Z,37.32
2022-08-07T20:00:03.873Z,38.13
2022-08-07T20:02:51.802Z,40.40
2022-08-07T20:05:23.716Z,38.55
2022-08-07T20:07:59.706Z,37.91
2022-08-07T20:10:51.844Z,37.79
2022-08-07T20:13:27.016Z,38.20
2022-08-07T20:16:00.557Z,38.00
2022-08-07T20:18:32.586Z,40.47
2022-08-07T20:21:14.300Z,42.17
2022-08-07T20:23:48.388Z,43.11
2022-08-07T20:26:32.437Z,43.79
2022-08-07T20:29:10.462Z,44.10
2022-08-07T20:31:44.160Z,44.60
2022-08-07T20:34:25.527Z,45.12
2022-08-07T20:37:05.524Z,45.84
2022-08-07T20:40:02.123Z,46.26
2022-08-07T20:42:23.108Z,46.81
2022-08-07T20:44:52.911Z,47.01
2022-08-07T20:47:25.046Z,47.85
2022-08-07T20:50:00.247Z,48.02
2022-08-07T20:52:52.384Z,48.26
2022-08-07T20:55:23.830Z,48.43
2022-08-07T20:58:02.638Z,48.66
2022-08-07T21:00:42.598Z,49.68
2022-08-07T21:03:14.337Z,49.71
2022-08-07T21:05:55.800Z,50.26
2022-08-07T21:08:36.503Z,50.90
2022-08-07T21:11:05.122Z,51.08
2022-08-07T21:13:57.369Z,51.56
2022-08-07T21:16:56.374Z,52.49
2022-08-07T21:19:32.273Z,53.16
2022-08-07T21:22:19.038Z,54.14
2022-08-07T21:25:25.077Z,54.49
2022-08-07T21:28:01.681Z,55.46
2022-08-07T21:30:47.001Z,55.84
2022-08-07T21:33:29.338Z,56.25
2022-08-07T21:36:30.889Z,56.14
2022-08-07T21:39:45.378Z,56.26
2022-08-07T21:42:45.988Z,56.56
2022-08-07T21:46:10.742Z,56.58
2022-08-07T21:48:34.439Z,57.01
2022-08-07T21:51:32.537Z,58.23
2022-08-07T21:54:39.058Z,58.86
2022-08-07T21:57:51.866Z,58.67
2022-08-07T22:00:25.264Z,57.98
2022-08-07T22:03:16.771Z,57.51
2022-08-07T22:06:30.547Z,57.12
2022-08-07T22:09:10.216Z,57.61
2022-08-07T22:12:04.825Z,57.69
2022-08-07T22:16:38.695Z,59.11
2022-08-07T22:18:00.593Z,59.72
2022-08-07T22:21:01.640Z,59.07
2022-08-07T22:23:57.358Z,58.96
2022-08-07T22:26:33.469Z,59.27
2022-08-07T22:29:14.022Z,58.61
2022-08-07T22:32:00.143Z,58.75
2022-08-07T22:34:59.686Z,58.97
2022-08-07T22:38:02.852Z,59.46
2022-08-07T22:40:45.192Z,59.38
2022-08-07T22:43:16.099Z,59.77
2022-08-07T22:46:47.065Z,60.87
2022-08-07T22:49:16.597Z,62.58
2022-08-07T22:52:37.270Z,63.14
2022-08-07T22:55:41.801Z,63.09
2022-08-07T22:58:46.559Z,62.66
2022-08-07T23:01:49.764Z,62.13
2022-08-07T23:04:57.874Z,62.25
2022-08-07T23:07:54.068Z,61.14
2022-08-07T23:10:46.542Z,61.35
2022-08-07T23:13:49.063Z,61.20
2022-08-07T23:17:02.375Z,61.40
2022-08-07T23:20:03.519Z,61.79
2022-08-07T23:23:01.186Z,62.05
2022-08-07T23:26:05.683Z,62.46
2022-08-07T23:29:43.975Z,63.01
2022-08-07T23:34:18.653Z,64.72
2022-08-07T23:36:04.468Z,66.45
2022-08-07T23:38:46.129Z,66.53
2022-08-07T23:42:04.499Z,66.92
2022-08-07T23:44:35.087Z,66.94
2022-08-07T23:47:42.441Z,67.49
2022-08-07T23:50:36.940Z,67.40
2022-08-07T23:53:21.627Z,67.45
2022-08-07T23:55:55.535Z,67.33
2022-08-07T23:58:36.565Z,67.81
